sensor_id;sensor_type;location;lat;lon;timestamp;pressure;altitude;pressure_sealevel;temperature;humidity
84245;BME280;74383;44.552;18.100;2024-01-30T00:01:24;101885.19;;;-1.11;73.69
84245;BME280;74383;44.552;18.100;2024-01-30T00:03:50;101888.94;;;-1.01;74.12
84245;BME280;74383;44.552;18.100;2024-01-30T00:06:19;101891.19;;;-0.95;72.48
84245;BME280;74383;44.552;18.100;2024-01-30T00:08:46;101884.72;;;-1.03;72.20
84245;BME280;74383;44.552;18.100;2024-01-30T00:11:14;101896.22;;;-0.92;72.15
84245;BME280;74383;44.552;18.100;2024-01-30T00:13:40;101893.44;;;-0.89;71.43
84245;BME280;74383;44.552;18.100;2024-01-30T00:16:06;101885.34;;;-0.98;71.30
84245;BME280;74383;44.552;18.100;2024-01-30T00:18:32;101891.19;;;-0.95;70.98
84245;BME280;74383;44.552;18.100;2024-01-30T00:20:57;101882.44;;;-0.94;71.64
84245;BME280;74383;44.552;18.100;2024-01-30T00:23:23;101898.25;;;-0.81;71.37
84245;BME280;74383;44.552;18.100;2024-01-30T00:25:50;101911.94;;;-0.78;71.83
84245;BME280;74383;44.552;18.100;2024-01-30T00:28:15;101904.25;;;-0.65;71.65
84245;BME280;74383;44.552;18.100;2024-01-30T00:30:41;101908.53;;;-0.64;71.15
84245;BME280;74383;44.552;18.100;2024-01-30T00:33:06;101910.41;;;-0.66;71.42
84245;BME280;74383;44.552;18.100;2024-01-30T00:35:33;101904.47;;;-0.84;72.13
84245;BME280;74383;44.552;18.100;2024-01-30T00:37:59;101910.97;;;-1.06;72.71
84245;BME280;74383;44.552;18.100;2024-01-30T00:40:24;101911.81;;;-1.06;73.18
84245;BME280;74383;44.552;18.100;2024-01-30T00:42:50;101907.38;;;-1.04;73.09
84245;BME280;74383;44.552;18.100;2024-01-30T00:45:16;101908.34;;;-0.91;72.24
84245;BME280;74383;44.552;18.100;2024-01-30T00:47:42;101907.25;;;-0.87;71.77
84245;BME280;74383;44.552;18.100;2024-01-30T00:50:08;101905.06;;;-0.94;71.28
84245;BME280;74383;44.552;18.100;2024-01-30T00:52:34;101912.38;;;-1.01;72.53
84245;BME280;74383;44.552;18.100;2024-01-30T00:55:00;101908.13;;;-1.02;71.90
84245;BME280;74383;44.552;18.100;2024-01-30T00:57:25;101908.97;;;-1.17;72.91
84245;BME280;74383;44.552;18.100;2024-01-30T00:59:52;101904.00;;;-1.06;73.43
84245;BME280;74383;44.552;18.100;2024-01-30T01:02:18;101908.19;;;-1.03;72.43
84245;BME280;74383;44.552;18.100;2024-01-30T01:04:44;101899.84;;;-0.94;72.85
84245;BME280;74383;44.552;18.100;2024-01-30T01:07:10;101906.69;;;-1.07;73.47
84245;BME280;74383;44.552;18.100;2024-01-30T01:09:36;101897.53;;;-0.99;73.46
84245;BME280;74383;44.552;18.100;2024-01-30T01:12:03;101896.16;;;-1.06;73.50
84245;BME280;74383;44.552;18.100;2024-01-30T01:14:28;101900.28;;;-1.02;73.15
84245;BME280;74383;44.552;18.100;2024-01-30T01:16:54;101896.44;;;-1.10;73.08
84245;BME280;74383;44.552;18.100;2024-01-30T01:19:20;101898.88;;;-1.23;72.83
84245;BME280;74383;44.552;18.100;2024-01-30T01:21:45;101900.63;;;-1.39;73.20
84245;BME280;74383;44.552;18.100;2024-01-30T01:24:11;101895.25;;;-1.21;73.02
84245;BME280;74383;44.552;18.100;2024-01-30T01:26:36;101897.47;;;-1.29;73.55
84245;BME280;74383;44.552;18.100;2024-01-30T01:29:02;101889.03;;;-1.18;72.81
84245;BME280;74383;44.552;18.100;2024-01-30T01:31:36;101888.28;;;-1.04;72.17
84245;BME280;74383;44.552;18.100;2024-01-30T01:34:05;101888.97;;;-1.17;72.70
84245;BME280;74383;44.552;18.100;2024-01-30T01:36:31;101889.47;;;-1.26;73.28
84245;BME280;74383;44.552;18.100;2024-01-30T01:38:57;101893.34;;;-1.17;72.97
84245;BME280;74383;44.552;18.100;2024-01-30T01:41:22;101890.78;;;-1.19;72.60
84245;BME280;74383;44.552;18.100;2024-01-30T01:43:48;101894.84;;;-1.13;73.36
84245;BME280;74383;44.552;18.100;2024-01-30T01:46:13;101893.00;;;-1.11;74.49
84245;BME280;74383;44.552;18.100;2024-01-30T01:48:39;101897.69;;;-1.02;74.15
84245;BME280;74383;44.552;18.100;2024-01-30T01:51:06;101898.25;;;-0.97;73.08
84245;BME280;74383;44.552;18.100;2024-01-30T01:53:32;101897.91;;;-0.91;72.85
84245;BME280;74383;44.552;18.100;2024-01-30T01:55:58;101904.38;;;-0.82;72.65
84245;BME280;74383;44.552;18.100;2024-01-30T01:58:26;101901.53;;;-0.78;73.35
84245;BME280;74383;44.552;18.100;2024-01-30T02:00:54;101899.25;;;-0.84;73.20
84245;BME280;74383;44.552;18.100;2024-01-30T02:03:21;101895.25;;;-0.89;73.22
84245;BME280;74383;44.552;18.100;2024-01-30T02:05:47;101901.03;;;-0.84;73.23
84245;BME280;74383;44.552;18.100;2024-01-30T02:08:13;101894.22;;;-0.87;72.74
84245;BME280;74383;44.552;18.100;2024-01-30T02:10:39;101894.22;;;-0.87;73.10
84245;BME280;74383;44.552;18.100;2024-01-30T02:13:04;101904.53;;;-0.85;72.81
84245;BME280;74383;44.552;18.100;2024-01-30T02:15:30;101904.47;;;-0.84;73.09
84245;BME280;74383;44.552;18.100;2024-01-30T02:17:56;101914.13;;;-0.86;72.79
84245;BME280;74383;44.552;18.100;2024-01-30T02:20:23;101904.47;;;-0.84;73.09
84245;BME280;74383;44.552;18.100;2024-01-30T02:22:52;101907.78;;;-0.96;73.03
84245;BME280;74383;44.552;18.100;2024-01-30T02:25:19;101902.81;;;-1.00;73.84
84245;BME280;74383;44.552;18.100;2024-01-30T02:27:45;101907.78;;;-0.96;74.27
84245;BME280;74383;44.552;18.100;2024-01-30T02:30:11;101906.34;;;-1.01;74.52
84245;BME280;74383;44.552;18.100;2024-01-30T02:32:38;101909.19;;;-0.90;74.60
84245;BME280;74383;44.552;18.100;2024-01-30T02:35:04;101906.56;;;-0.75;73.64
84245;BME280;74383;44.552;18.100;2024-01-30T02:37:29;101907.81;;;-0.66;72.83
84245;BME280;74383;44.552;18.100;2024-01-30T02:39:55;101907.13;;;-0.70;72.81
84245;BME280;74383;44.552;18.100;2024-01-30T02:42:20;101903.13;;;-0.75;73.30
84245;BME280;74383;44.552;18.100;2024-01-30T02:44:46;101906.47;;;-0.73;73.50
84245;BME280;74383;44.552;18.100;2024-01-30T02:47:12;101912.88;;;-0.79;73.70
84245;BME280;74383;44.552;18.100;2024-01-30T02:49:37;101905.41;;;-0.85;73.77
84245;BME280;74383;44.552;18.100;2024-01-30T02:52:03;101900.47;;;-0.89;73.65
84245;BME280;74383;44.552;18.100;2024-01-30T02:54:29;101906.63;;;-0.76;73.47
84245;BME280;74383;44.552;18.100;2024-01-30T02:56:56;101919.59;;;-0.75;73.37
84245;BME280;74383;44.552;18.100;2024-01-30T02:59:21;101903.19;;;-0.77;72.79
84245;BME280;74383;44.552;18.100;2024-01-30T03:01:47;101909.25;;;-0.92;73.76
84245;BME280;74383;44.552;18.100;2024-01-30T03:04:13;101906.34;;;-1.33;76.32
84245;BME280;74383;44.552;18.100;2024-01-30T03:06:38;101902.00;;;-1.17;75.74
84245;BME280;74383;44.552;18.100;2024-01-30T03:09:04;101900.28;;;-1.02;75.22
84245;BME280;74383;44.552;18.100;2024-01-30T03:11:30;101900.53;;;-1.06;75.37
84245;BME280;74383;44.552;18.100;2024-01-30T03:13:56;101903.16;;;-1.06;75.81
84245;BME280;74383;44.552;18.100;2024-01-30T03:16:21;101901.38;;;-1.22;76.87
84245;BME280;74383;44.552;18.100;2024-01-30T03:18:47;101904.84;;;-1.21;75.79
84245;BME280;74383;44.552;18.100;2024-01-30T03:21:13;101901.47;;;-1.23;76.04
84245;BME280;74383;44.552;18.100;2024-01-30T03:23:39;101906.09;;;-1.13;75.81
84245;BME280;74383;44.552;18.100;2024-01-30T03:26:05;101899.63;;;-1.05;75.50
84245;BME280;74383;44.552;18.100;2024-01-30T03:28:32;101902.81;;;-1.00;75.03
84245;BME280;74383;44.552;18.100;2024-01-30T03:30:57;101903.06;;;-1.05;75.28
84245;BME280;74383;44.552;18.100;2024-01-30T03:33:23;101897.25;;;-0.94;74.93
84245;BME280;74383;44.552;18.100;2024-01-30T03:35:48;101902.47;;;-0.94;74.21
84245;BME280;74383;44.552;18.100;2024-01-30T03:38:14;101902.28;;;-0.91;74.24
84245;BME280;74383;44.552;18.100;2024-01-30T03:40:39;101904.56;;;-1.01;74.92
84245;BME280;74383;44.552;18.100;2024-01-30T03:43:05;101902.31;;;-1.07;74.85
84245;BME280;74383;44.552;18.100;2024-01-30T03:45:31;101899.13;;;-1.12;75.09
84245;BME280;74383;44.552;18.100;2024-01-30T03:47:56;101900.97;;;-1.14;74.50
84245;BME280;74383;44.552;18.100;2024-01-30T03:50:22;101898.47;;;-1.31;75.23
84245;BME280;74383;44.552;18.100;2024-01-30T03:52:48;101897.03;;;-1.21;74.97
84245;BME280;74383;44.552;18.100;2024-01-30T03:55:13;101898.72;;;-1.20;74.65
84245;BME280;74383;44.552;18.100;2024-01-30T03:57:39;101902.66;;;-1.13;75.16
84245;BME280;74383;44.552;18.100;2024-01-30T04:00:05;101902.50;;;-1.26;75.04
84245;BME280;74383;44.552;18.100;2024-01-30T04:02:37;101896.44;;;-1.10;75.16
84245;BME280;74383;44.552;18.100;2024-01-30T04:05:03;101910.22;;;-1.24;75.45
84245;BME280;74383;44.552;18.100;2024-01-30T04:07:28;101901.63;;;-1.42;75.49
84245;BME280;74383;44.552;18.100;2024-01-30T04:09:54;101903.06;;;-1.36;76.53
84245;BME280;74383;44.552;18.100;2024-01-30T04:12:20;101906.28;;;-1.31;76.05
84245;BME280;74383;44.552;18.100;2024-01-30T04:14:45;101899.47;;;-1.18;75.54
84245;BME280;74383;44.552;18.100;2024-01-30T04:17:11;101903.59;;;-1.14;75.09
84245;BME280;74383;44.552;18.100;2024-01-30T04:19:37;101907.44;;;-1.05;74.77
84245;BME280;74383;44.552;18.100;2024-01-30T04:22:03;101913.44;;;-1.19;74.96
84245;BME280;74383;44.552;18.100;2024-01-30T04:24:29;101912.13;;;-1.28;75.67
84245;BME280;74383;44.552;18.100;2024-01-30T04:26:55;101906.19;;;-1.14;75.25
84245;BME280;74383;44.552;18.100;2024-01-30T04:29:20;101910.88;;;-1.05;74.85
84245;BME280;74383;44.552;18.100;2024-01-30T04:31:47;101916.34;;;-1.09;74.95
84245;BME280;74383;44.552;18.100;2024-01-30T04:34:13;101918.72;;;-1.05;74.78
84245;BME280;74383;44.552;18.100;2024-01-30T04:36:39;101913.16;;;-0.99;74.10
84245;BME280;74383;44.552;18.100;2024-01-30T04:39:04;101914.75;;;-1.12;74.51
84245;BME280;74383;44.552;18.100;2024-01-30T04:41:30;101918.78;;;-1.06;73.84
84245;BME280;74383;44.552;18.100;2024-01-30T04:43:57;101929.88;;;-1.03;73.73
84245;BME280;74383;44.552;18.100;2024-01-30T04:46:23;101931.31;;;-1.13;74.81
84245;BME280;74383;44.552;18.100;2024-01-30T04:48:48;101929.63;;;-1.14;74.37
84245;BME280;74383;44.552;18.100;2024-01-30T04:51:14;101928.13;;;-1.02;73.48
84245;BME280;74383;44.552;18.100;2024-01-30T04:53:39;101923.69;;;-1.16;74.19
84245;BME280;74383;44.552;18.100;2024-01-30T04:56:05;101924.34;;;-1.28;74.13
84245;BME280;74383;44.552;18.100;2024-01-30T04:58:31;101928.88;;;-1.16;73.87
84245;BME280;74383;44.552;18.100;2024-01-30T05:00:57;101923.00;;;-1.20;73.59
84245;BME280;74383;44.552;18.100;2024-01-30T05:03:22;101928.09;;;-1.18;72.99
84245;BME280;74383;44.552;18.100;2024-01-30T05:05:49;101928.09;;;-1.18;73.15
84245;BME280;74383;44.552;18.100;2024-01-30T05:08:15;101931.56;;;-1.18;72.85
84245;BME280;74383;44.552;18.100;2024-01-30T05:10:40;101936.09;;;-1.21;72.96
84245;BME280;74383;44.552;18.100;2024-01-30T05:13:06;101928.44;;;-1.24;73.42
84245;BME280;74383;44.552;18.100;2024-01-30T05:15:32;101935.06;;;-1.50;73.54
84245;BME280;74383;44.552;18.100;2024-01-30T05:17:57;101938.59;;;-1.66;74.05
84245;BME280;74383;44.552;18.100;2024-01-30T05:20:23;101940.66;;;-1.73;74.34
84245;BME280;74383;44.552;18.100;2024-01-30T05:22:48;101940.91;;;-1.95;74.89
84245;BME280;74383;44.552;18.100;2024-01-30T05:25:14;101936.47;;;-1.93;74.73
84245;BME280;74383;44.552;18.100;2024-01-30T05:27:40;101946.97;;;-1.94;75.47
84245;BME280;74383;44.552;18.100;2024-01-30T05:30:06;101942.91;;;-1.83;74.68
84245;BME280;74383;44.552;18.100;2024-01-30T05:32:32;101936.19;;;-1.71;73.75
84245;BME280;74383;44.552;18.100;2024-01-30T05:34:57;101941.34;;;-1.70;73.33
84245;BME280;74383;44.552;18.100;2024-01-30T05:37:23;101953.53;;;-1.54;73.46
84245;BME280;74383;44.552;18.100;2024-01-30T05:39:49;101946.63;;;-1.71;73.05
84245;BME280;74383;44.552;18.100;2024-01-30T05:42:14;101949.31;;;-1.57;73.08
84245;BME280;74383;44.552;18.100;2024-01-30T05:44:42;101945.22;;;-1.61;73.23
84245;BME280;74383;44.552;18.100;2024-01-30T05:47:08;101944.81;;;-1.53;73.32
84245;BME280;74383;44.552;18.100;2024-01-30T05:49:33;101947.81;;;-1.45;73.53
84245;BME280;74383;44.552;18.100;2024-01-30T05:52:01;101942.22;;;-1.38;72.92
84245;BME280;74383;44.552;18.100;2024-01-30T05:54:27;101941.81;;;-1.46;72.54
84245;BME280;74383;44.552;18.100;2024-01-30T05:56:52;101935.91;;;-1.49;72.64
84245;BME280;74383;44.552;18.100;2024-01-30T05:59:18;101940.78;;;-1.43;72.38
84245;BME280;74383;44.552;18.100;2024-01-30T06:01:48;101939.63;;;-1.38;72.54
84245;BME280;74383;44.552;18.100;2024-01-30T06:04:14;101944.63;;;-1.50;74.06
84245;BME280;74383;44.552;18.100;2024-01-30T06:06:40;101938.78;;;-1.38;74.77
84245;BME280;74383;44.552;18.100;2024-01-30T06:09:06;101937.25;;;-1.58;74.73
84245;BME280;74383;44.552;18.100;2024-01-30T06:11:34;101941.03;;;-1.63;75.75
84245;BME280;74383;44.552;18.100;2024-01-30T06:14:00;101936.31;;;-1.73;75.22
84245;BME280;74383;44.552;18.100;2024-01-30T06:16:26;101937.94;;;-2.04;76.09
84245;BME280;74383;44.552;18.100;2024-01-30T06:18:55;101938.31;;;-1.95;76.94
84245;BME280;74383;44.552;18.100;2024-01-30T06:21:21;101937.91;;;-1.70;75.84
84245;BME280;74383;44.552;18.100;2024-01-30T06:23:47;101939.75;;;-1.89;75.52
84245;BME280;74383;44.552;18.100;2024-01-30T06:26:12;101937.72;;;-2.00;75.91
84245;BME280;74383;44.552;18.100;2024-01-30T06:28:38;101947.34;;;-2.02;76.47
84245;BME280;74383;44.552;18.100;2024-01-30T06:31:04;101944.53;;;-1.97;76.38
84245;BME280;74383;44.552;18.100;2024-01-30T06:33:29;101956.47;;;-1.93;76.28
84245;BME280;74383;44.552;18.100;2024-01-30T06:35:55;101954.63;;;-1.91;75.92
84245;BME280;74383;44.552;18.100;2024-01-30T06:38:21;101954.53;;;-1.73;75.40
84245;BME280;74383;44.552;18.100;2024-01-30T06:40:46;101952.50;;;-1.67;74.51
84245;BME280;74383;44.552;18.100;2024-01-30T06:43:12;101948.50;;;-1.57;73.91
84245;BME280;74383;44.552;18.100;2024-01-30T06:45:38;101954.47;;;-1.55;74.05
84245;BME280;74383;44.552;18.100;2024-01-30T06:48:03;101955.09;;;-1.67;74.48
84245;BME280;74383;44.552;18.100;2024-01-30T06:50:29;101956.47;;;-1.60;74.80
84245;BME280;74383;44.552;18.100;2024-01-30T06:52:55;101963.63;;;-1.48;73.71
84245;BME280;74383;44.552;18.100;2024-01-30T06:55:21;101960.69;;;-2.08;75.46
84245;BME280;74383;44.552;18.100;2024-01-30T06:57:46;101966.03;;;-1.94;76.69
84245;BME280;74383;44.552;18.100;2024-01-30T07:00:12;101966.75;;;-1.75;76.18
84245;BME280;74383;44.552;18.100;2024-01-30T07:02:39;101962.75;;;-1.64;75.06
84245;BME280;74383;44.552;18.100;2024-01-30T07:05:04;101963.66;;;-1.65;74.99
84245;BME280;74383;44.552;18.100;2024-01-30T07:07:30;101965.88;;;-1.58;75.10
84245;BME280;74383;44.552;18.100;2024-01-30T07:09:55;101968.06;;;-1.50;74.89
84245;BME280;74383;44.552;18.100;2024-01-30T07:12:22;101967.69;;;-1.43;74.54
84245;BME280;74383;44.552;18.100;2024-01-30T07:14:50;101973.22;;;-1.33;74.10
84245;BME280;74383;44.552;18.100;2024-01-30T07:17:15;101975.41;;;-1.41;74.23
84245;BME280;74383;44.552;18.100;2024-01-30T07:19:41;101975.28;;;-1.23;73.62
84245;BME280;74383;44.552;18.100;2024-01-30T07:22:08;101978.69;;;-1.71;74.93
84245;BME280;74383;44.552;18.100;2024-01-30T07:24:34;101968.16;;;-1.52;73.58
84245;BME280;74383;44.552;18.100;2024-01-30T07:26:59;101972.47;;;-1.68;74.44
84245;BME280;74383;44.552;18.100;2024-01-30T07:29:25;101974.59;;;-1.92;75.44
84245;BME280;74383;44.552;18.100;2024-01-30T07:31:51;101981.22;;;-1.69;75.18
84245;BME280;74383;44.552;18.100;2024-01-30T07:34:16;101979.25;;;-1.81;75.26
84245;BME280;74383;44.552;18.100;2024-01-30T07:36:42;101979.59;;;-1.72;75.16
84245;BME280;74383;44.552;18.100;2024-01-30T07:39:07;101970.59;;;-1.82;75.62
84245;BME280;74383;44.552;18.100;2024-01-30T07:41:33;101975.03;;;-1.51;74.52
84245;BME280;74383;44.552;18.100;2024-01-30T07:43:59;101973.91;;;-1.30;74.27
84245;BME280;74383;44.552;18.100;2024-01-30T07:46:25;101977.72;;;-1.20;73.73
84245;BME280;74383;44.552;18.100;2024-01-30T07:48:50;101974.91;;;-1.01;73.01
84245;BME280;74383;44.552;18.100;2024-01-30T07:51:16;101976.78;;;-0.87;72.15
84245;BME280;74383;44.552;18.100;2024-01-30T07:53:41;101970.72;;;-0.72;71.62
84245;BME280;74383;44.552;18.100;2024-01-30T07:56:07;101968.09;;;-0.57;70.97
84245;BME280;74383;44.552;18.100;2024-01-30T07:58:33;101974.94;;;-0.40;71.32
84245;BME280;74383;44.552;18.100;2024-01-30T08:00:58;101978.22;;;-0.36;71.46
84245;BME280;74383;44.552;18.100;2024-01-30T08:03:25;101970.78;;;-0.28;71.49
84245;BME280;74383;44.552;18.100;2024-01-30T08:05:51;101972.59;;;-0.15;70.95
84245;BME280;74383;44.552;18.100;2024-01-30T08:08:17;101968.84;;;-0.25;69.86
84245;BME280;74383;44.552;18.100;2024-01-30T08:10:43;101970.44;;;-0.52;71.82
84245;BME280;74383;44.552;18.100;2024-01-30T08:13:08;101966.41;;;-0.28;71.32
84245;BME280;74383;44.552;18.100;2024-01-30T08:15:34;101964.03;;;-0.46;71.65
84245;BME280;74383;44.552;18.100;2024-01-30T08:18:25;101963.13;;;-0.02;70.93
84245;BME280;74383;44.552;18.100;2024-01-30T08:20:50;101956.16;;;0.13;70.40
84245;BME280;74383;44.552;18.100;2024-01-30T08:23:16;101949.81;;;0.31;69.73
84245;BME280;74383;44.552;18.100;2024-01-30T08:25:41;101960.09;;;0.48;70.24
84245;BME280;74383;44.552;18.100;2024-01-30T08:28:07;101959.53;;;0.43;70.03
84245;BME280;74383;44.552;18.100;2024-01-30T08:30:33;101957.75;;;0.58;69.83
84245;BME280;74383;44.552;18.100;2024-01-30T08:32:59;101941.31;;;0.70;69.83
84245;BME280;74383;44.552;18.100;2024-01-30T08:35:24;101951.34;;;0.35;70.24
84245;BME280;74383;44.552;18.100;2024-01-30T08:37:50;101941.59;;;0.51;69.14
84245;BME280;74383;44.552;18.100;2024-01-30T08:40:15;101957.66;;;0.45;69.22
84245;BME280;74383;44.552;18.100;2024-01-30T08:42:41;101952.50;;;0.30;70.13
84245;BME280;74383;44.552;18.100;2024-01-30T08:45:07;101953.00;;;0.36;71.04
84245;BME280;74383;44.552;18.100;2024-01-30T08:47:33;101944.41;;;0.77;69.95
84245;BME280;74383;44.552;18.100;2024-01-30T08:49:59;101937.06;;;0.96;69.07
84245;BME280;74383;44.552;18.100;2024-01-30T08:52:30;101931.56;;;1.27;69.38
84245;BME280;74383;44.552;18.100;2024-01-30T08:54:56;101928.66;;;1.44;68.76
84245;BME280;74383;44.552;18.100;2024-01-30T08:57:21;101938.50;;;1.41;68.95
84245;BME280;74383;44.552;18.100;2024-01-30T08:59:47;101939.06;;;1.58;68.47
84245;BME280;74383;44.552;18.100;2024-01-30T09:02:13;101933.84;;;1.71;66.36
84245;BME280;74383;44.552;18.100;2024-01-30T09:04:41;101942.16;;;1.78;68.11
84245;BME280;74383;44.552;18.100;2024-01-30T09:07:09;101941.44;;;2.01;66.54
84245;BME280;74383;44.552;18.100;2024-01-30T09:09:34;101944.66;;;2.17;66.30
84245;BME280;74383;44.552;18.100;2024-01-30T09:12:00;101936.47;;;2.47;65.18
84245;BME280;74383;44.552;18.100;2024-01-30T09:14:30;101929.31;;;2.61;64.38
84245;BME280;74383;44.552;18.100;2024-01-30T09:16:56;101918.72;;;2.75;63.55
84245;BME280;74383;44.552;18.100;2024-01-30T09:19:21;101917.75;;;2.76;62.25
84245;BME280;74383;44.552;18.100;2024-01-30T09:21:47;101919.47;;;3.01;62.82
84245;BME280;74383;44.552;18.100;2024-01-30T09:24:12;101914.63;;;3.31;61.98
84245;BME280;74383;44.552;18.100;2024-01-30T09:26:38;101913.44;;;3.70;61.79
84245;BME280;74383;44.552;18.100;2024-01-30T09:29:04;101918.63;;;4.05;61.29
84245;BME280;74383;44.552;18.100;2024-01-30T09:31:29;101904.75;;;3.92;60.92
84245;BME280;74383;44.552;18.100;2024-01-30T09:33:55;101906.34;;;4.17;60.64
84245;BME280;74383;44.552;18.100;2024-01-30T09:36:21;101903.94;;;4.25;61.63
84245;BME280;74383;44.552;18.100;2024-01-30T09:38:47;101901.81;;;4.41;60.92
84245;BME280;74383;44.552;18.100;2024-01-30T09:41:13;101901.09;;;4.50;60.86
84245;BME280;74383;44.552;18.100;2024-01-30T09:43:38;101893.66;;;4.66;58.49
84245;BME280;74383;44.552;18.100;2024-01-30T09:46:05;101892.63;;;5.00;59.93
84245;BME280;74383;44.552;18.100;2024-01-30T09:48:32;101885.81;;;5.30;59.13
84245;BME280;74383;44.552;18.100;2024-01-30T09:50:59;101886.59;;;5.41;57.73
84245;BME280;74383;44.552;18.100;2024-01-30T09:53:25;101884.06;;;5.51;58.38
84245;BME280;74383;44.552;18.100;2024-01-30T09:55:51;101892.72;;;5.83;56.43
84245;BME280;74383;44.552;18.100;2024-01-30T09:58:16;101889.94;;;5.96;56.87
84245;BME280;74383;44.552;18.100;2024-01-30T10:00:42;101870.19;;;6.21;56.37
84245;BME280;74383;44.552;18.100;2024-01-30T10:03:08;101861.56;;;6.49;54.91
84245;BME280;74383;44.552;18.100;2024-01-30T10:05:35;101857.13;;;6.49;55.41
84245;BME280;74383;44.552;18.100;2024-01-30T10:08:06;101862.09;;;6.43;55.29
84245;BME280;74383;44.552;18.100;2024-01-30T10:10:35;101845.06;;;6.66;53.85
84245;BME280;74383;44.552;18.100;2024-01-30T10:13:01;101837.44;;;6.63;54.59
84245;BME280;74383;44.552;18.100;2024-01-30T10:15:28;101844.44;;;7.21;54.24
84245;BME280;74383;44.552;18.100;2024-01-30T10:17:54;101839.13;;;7.50;53.55
84245;BME280;74383;44.552;18.100;2024-01-30T10:20:20;101838.94;;;7.71;52.98
84245;BME280;74383;44.552;18.100;2024-01-30T10:22:48;101829.59;;;7.86;52.69
84245;BME280;74383;44.552;18.100;2024-01-30T10:25:15;101829.22;;;8.08;52.70
84245;BME280;74383;44.552;18.100;2024-01-30T10:27:40;101825.63;;;8.00;51.46
84245;BME280;74383;44.552;18.100;2024-01-30T10:30:07;101825.06;;;8.43;51.21
84245;BME280;74383;44.552;18.100;2024-01-30T10:32:33;101821.47;;;8.79;50.09
84245;BME280;74383;44.552;18.100;2024-01-30T10:34:59;101820.75;;;8.86;49.03
84245;BME280;74383;44.552;18.100;2024-01-30T10:37:25;101814.84;;;8.75;47.28
84245;BME280;74383;44.552;18.100;2024-01-30T10:39:53;101805.09;;;8.93;46.45
84245;BME280;74383;44.552;18.100;2024-01-30T10:42:21;101804.78;;;8.96;45.06
84245;BME280;74383;44.552;18.100;2024-01-30T10:45:01;101798.13;;;8.92;44.36
84245;BME280;74383;44.552;18.100;2024-01-30T10:47:29;101795.19;;;9.21;44.74
84245;BME280;74383;44.552;18.100;2024-01-30T10:49:56;101800.16;;;8.98;45.72
84245;BME280;74383;44.552;18.100;2024-01-30T10:52:23;101790.63;;;9.48;45.35
84245;BME280;74383;44.552;18.100;2024-01-30T10:54:54;101784.03;;;9.86;45.11
84245;BME280;74383;44.552;18.100;2024-01-30T10:57:23;101771.16;;;9.91;42.75
84245;BME280;74383;44.552;18.100;2024-01-30T10:59:49;101762.53;;;10.23;43.29
84245;BME280;74383;44.552;18.100;2024-01-30T11:02:17;101761.44;;;10.42;42.04
84245;BME280;74383;44.552;18.100;2024-01-30T11:04:42;101756.50;;;10.79;41.40
84245;BME280;74383;44.552;18.100;2024-01-30T11:07:18;101751.19;;;10.79;41.82
84245;BME280;74383;44.552;18.100;2024-01-30T11:09:51;101749.53;;;11.19;41.18
84245;BME280;74383;44.552;18.100;2024-01-30T11:12:21;101749.22;;;10.89;39.91
84245;BME280;74383;44.552;18.100;2024-01-30T11:14:47;101740.41;;;10.89;39.60
84245;BME280;74383;44.552;18.100;2024-01-30T11:17:12;101734.75;;;11.16;39.47
84245;BME280;74383;44.552;18.100;2024-01-30T11:19:38;101727.41;;;11.26;38.48
84245;BME280;74383;44.552;18.100;2024-01-30T11:22:06;101728.44;;;10.85;37.99
84245;BME280;74383;44.552;18.100;2024-01-30T11:24:39;101720.25;;;11.35;41.68
84245;BME280;74383;44.552;18.100;2024-01-30T11:27:08;101723.59;;;10.72;39.57
84245;BME280;74383;44.552;18.100;2024-01-30T11:29:35;101711.09;;;11.45;37.83
84245;BME280;74383;44.552;18.100;2024-01-30T11:32:00;101716.19;;;11.71;38.41
84245;BME280;74383;44.552;18.100;2024-01-30T11:34:26;101714.00;;;11.83;37.32
84245;BME280;74383;44.552;18.100;2024-01-30T11:36:55;101711.78;;;12.25;36.68
84245;BME280;74383;44.552;18.100;2024-01-30T11:39:27;101700.31;;;11.94;36.44
84245;BME280;74383;44.552;18.100;2024-01-30T11:41:53;101707.72;;;12.37;35.40
84245;BME280;74383;44.552;18.100;2024-01-30T11:44:20;101698.63;;;12.32;35.38
84245;BME280;74383;44.552;18.100;2024-01-30T11:46:50;101697.53;;;12.86;34.46
84245;BME280;74383;44.552;18.100;2024-01-30T11:49:16;101692.53;;;13.06;34.01
84245;BME280;74383;44.552;18.100;2024-01-30T11:51:42;101688.72;;;13.23;34.24
84245;BME280;74383;44.552;18.100;2024-01-30T11:54:08;101688.47;;;13.47;33.52
84245;BME280;74383;44.552;18.100;2024-01-30T11:56:34;101688.25;;;13.49;33.62
84245;BME280;74383;44.552;18.100;2024-01-30T11:59:00;101686.50;;;13.85;33.74
84245;BME280;74383;44.552;18.100;2024-01-30T12:01:26;101684.91;;;14.26;32.75
84245;BME280;74383;44.552;18.100;2024-01-30T12:03:52;101678.69;;;14.19;31.75
84245;BME280;74383;44.552;18.100;2024-01-30T12:06:18;101669.56;;;14.50;32.00
84245;BME280;74383;44.552;18.100;2024-01-30T12:09:04;101673.38;;;14.40;31.96
84245;BME280;74383;44.552;18.100;2024-01-30T12:11:30;101669.00;;;14.75;31.55
84245;BME280;74383;44.552;18.100;2024-01-30T12:13:56;101664.03;;;15.00;31.78
84245;BME280;74383;44.552;18.100;2024-01-30T12:16:22;101664.81;;;15.22;30.81
84245;BME280;74383;44.552;18.100;2024-01-30T12:18:48;101662.38;;;14.71;30.40
84245;BME280;74383;44.552;18.100;2024-01-30T12:21:17;101654.94;;;15.22;30.42
84245;BME280;74383;44.552;18.100;2024-01-30T12:23:43;101661.50;;;15.47;29.74
84245;BME280;74383;44.552;18.100;2024-01-30T12:26:09;101650.66;;;15.28;28.49
84245;BME280;74383;44.552;18.100;2024-01-30T12:28:35;101647.38;;;15.26;30.59
84245;BME280;74383;44.552;18.100;2024-01-30T12:31:04;101643.25;;;15.30;29.45
84245;BME280;74383;44.552;18.100;2024-01-30T12:33:30;101633.22;;;15.73;29.11
84245;BME280;74383;44.552;18.100;2024-01-30T12:35:57;101636.53;;;15.81;29.05
84245;BME280;74383;44.552;18.100;2024-01-30T12:38:24;101635.78;;;16.07;27.85